Weather at Adolfo Suárez Madrid–Barajas Airport

Public forecast

Using degrees Celsius for public forecast. Weather courtesy of forecast.io.

Current aviation weather report (METAR) for Adolfo Suárez Madrid–Barajas Airport

Retrieved 2021/07/29 08:00 UTC (17 minutes ago):

LEMD 290800Z VRB02KT CAVOK 26/17 Q1016 NOSIG

Aviation forecast (TAF) for Adolfo Suárez Madrid–Barajas Airport

Retrieved 2021/07/29 06:28 UTC (2 hours ago):

TAF LEMD 290500Z 2906/3012 VRB05KT CAVOK TX38/2916Z TN19/2906Z BECMG 2910/2912 23010KT PROB40 TEMPO 2913/2919 23015G25KT TEMPO 2922/3006 VRB05KT